Time;durP1;ratioP1;P1;durP2;ratioP2;P2;SDS_P1;SDS_P2;PMS_P1;PMS_P2;Temp;Humidity;BMP_temperature;BMP_pressure;BME280_temperature;BME280_humidity;BME280_pressure;Samples;Min_cycle;Max_cycle;Signal;HPM_P1;HPM_P2
2023/03/12 00:00:43;;;;;;;8.45;4.03;;;;;;;;;;5009392;28;20068;-73
2023/03/12 00:03:09;;;;;;;9.38;3.90;;;;;;;;;;5018247;28;20033;-73
2023/03/12 00:05:39;;;;;;;11.75;4.70;;;;;;;;;;5004749;28;20032;-72
2023/03/12 00:08:05;;;;;;;9.00;3.85;;;;;;;;;;5001169;28;20018;-75
2023/03/12 00:10:31;;;;;;;7.60;4.35;;;;;;;;;;5011780;28;20400;-74
2023/03/12 00:12:58;;;;;;;7.38;3.80;;;;;;;;;;5012375;28;20044;-74
2023/03/12 00:15:24;;;;;;;7.85;3.55;;;;;;;;;;4996303;28;20128;-75
2023/03/12 00:17:50;;;;;;;10.27;3.63;;;;;;;;;;5014290;28;20053;-76
2023/03/12 00:20:16;;;;;;;9.82;3.72;;;;;;;;;;5025937;28;20037;-76
2023/03/12 00:22:43;;;;;;;11.85;4.30;;;;;;;;;;5004519;28;20032;-73
2023/03/12 00:25:13;;;;;;;7.20;3.75;;;;;;;;;;5018976;28;20432;-75
2023/03/12 00:27:39;;;;;;;15.30;4.60;;;;;;;;;;5012327;28;20029;-77
2023/03/12 00:30:06;;;;;;;8.00;4.20;;;;;;;;;;5013715;28;20033;-77
2023/03/12 00:32:32;;;;;;;5.93;3.67;;;;;;;;;;5045862;28;20093;-71
2023/03/12 00:34:58;;;;;;;6.00;3.80;;;;;;;;;;5031146;28;20020;-74
2023/03/12 00:37:24;;;;;;;9.25;3.22;;;;;;;;;;5038617;28;20497;-75
2023/03/12 00:39:51;;;;;;;7.10;3.22;;;;;;;;;;5028200;28;20022;-74
2023/03/12 00:42:17;;;;;;;5.43;3.38;;;;;;;;;;5033852;28;20442;-74
2023/03/12 00:44:43;;;;;;;5.43;3.50;;;;;;;;;;5028308;28;20030;-73
2023/03/12 00:47:09;;;;;;;7.93;3.78;;;;;;;;;;5031746;28;20036;-73
2023/03/12 00:49:35;;;;;;;5.57;3.15;;;;;;;;;;5012644;28;20029;-74
2023/03/12 00:52:01;;;;;;;6.55;3.17;;;;;;;;;;5014696;28;20553;-74
2023/03/12 00:54:27;;;;;;;11.85;3.55;;;;;;;;;;4996126;28;20400;-74
2023/03/12 00:56:53;;;;;;;5.55;3.13;;;;;;;;;;5011812;28;20026;-74
2023/03/12 00:59:19;;;;;;;7.80;3.35;;;;;;;;;;5011614;28;20088;-74
2023/03/12 01:01:46;;;;;;;7.68;3.40;;;;;;;;;;5011817;28;20369;-74
2023/03/12 01:04:12;;;;;;;10.00;3.20;;;;;;;;;;5011959;28;20030;-73
2023/03/12 01:06:38;;;;;;;6.57;2.90;;;;;;;;;;5014155;28;20476;-74
2023/03/12 01:09:05;;;;;;;8.20;3.40;;;;;;;;;;5010808;28;20050;-74
2023/03/12 01:11:31;;;;;;;6.78;2.72;;;;;;;;;;5021158;28;20088;-73
2023/03/12 01:13:59;;;;;;;5.53;2.67;;;;;;;;;;5010395;28;20053;-73
2023/03/12 01:16:27;;;;;;;9.38;3.28;;;;;;;;;;5017505;28;20037;-74
2023/03/12 01:18:53;;;;;;;7.28;3.42;;;;;;;;;;5023628;28;20378;-74
2023/03/12 01:21:19;;;;;;;8.95;3.42;;;;;;;;;;5023247;28;20057;-74
2023/03/12 01:23:45;;;;;;;5.38;2.65;;;;;;;;;;5016343;28;20061;-74
2023/03/12 01:26:11;;;;;;;6.60;3.00;;;;;;;;;;5018956;28;20037;-74
2023/03/12 01:28:37;;;;;;;8.80;3.20;;;;;;;;;;4994624;28;20095;-74
2023/03/12 01:31:10;;;;;;;5.00;2.90;;;;;;;;;;5017329;28;20053;-74
2023/03/12 01:33:36;;;;;;;7.47;2.85;;;;;;;;;;5004175;28;20030;-73
2023/03/12 01:36:02;;;;;;;6.28;2.40;;;;;;;;;;5026877;28;20061;-74
2023/03/12 01:38:33;;;;;;;6.53;2.92;;;;;;;;;;5026461;28;20029;-75
2023/03/12 01:40:59;;;;;;;5.50;2.50;;;;;;;;;;5018943;28;20531;-74
2023/03/12 01:43:30;;;;;;;4.93;2.67;;;;;;;;;;5006622;28;20026;-74
2023/03/12 01:46:05;;;;;;;7.40;2.63;;;;;;;;;;5016739;28;20054;-73
2023/03/12 01:48:54;;;;;;;4.63;2.47;;;;;;;;;;5017059;28;20029;-71
2023/03/12 01:51:20;;;;;;;5.55;2.60;;;;;;;;;;5012834;28;20037;-73
2023/03/12 01:53:49;;;;;;;10.30;2.92;;;;;;;;;;5027507;28;20026;-73
2023/03/12 01:56:16;;;;;;;6.05;2.22;;;;;;;;;;5018031;28;20026;-73
2023/03/12 01:58:43;;;;;;;7.28;2.90;;;;;;;;;;4977484;28;20033;-73
2023/03/12 02:01:09;;;;;;;7.13;2.63;;;;;;;;;;5010642;28;20034;-73
2023/03/12 02:03:36;;;;;;;7.63;2.55;;;;;;;;;;5015289;28;20026;-73
2023/03/12 02:06:05;;;;;;;5.15;2.15;;;;;;;;;;5017566;28;20021;-72
2023/03/12 02:08:35;;;;;;;5.90;2.38;;;;;;;;;;5027145;28;20127;-74
2023/03/12 02:11:01;;;;;;;7.00;2.42;;;;;;;;;;5023323;28;20030;-72
2023/03/12 02:13:27;;;;;;;11.73;3.08;;;;;;;;;;5029789;28;20045;-73
2023/03/12 02:15:53;;;;;;;8.82;2.70;;;;;;;;;;5015585;28;20109;-73
2023/03/12 02:18:20;;;;;;;6.45;2.30;;;;;;;;;;5014301;28;20030;-73
2023/03/12 02:20:46;;;;;;;6.15;2.10;;;;;;;;;;5014408;28;20037;-73
2023/03/12 02:23:14;;;;;;;5.68;2.85;;;;;;;;;;5014723;28;20025;-74
2023/03/12 02:25:45;;;;;;;4.50;2.40;;;;;;;;;;5014371;28;20069;-73
2023/03/12 02:28:15;;;;;;;7.40;2.20;;;;;;;;;;5014126;28;20032;-73
2023/03/12 02:30:44;;;;;;;7.45;2.55;;;;;;;;;;5014598;28;20026;-73
2023/03/12 02:33:10;;;;;;;6.00;2.30;;;;;;;;;;5014364;28;20116;-73
2023/03/12 02:35:37;;;;;;;6.95;2.60;;;;;;;;;;5014178;28;20030;-73
2023/03/12 02:38:03;;;;;;;5.05;2.28;;;;;;;;;;5014299;28;20547;-73
2023/03/12 02:40:41;;;;;;;9.43;2.63;;;;;;;;;;5013879;28;20061;-74
2023/03/12 02:43:08;;;;;;;7.28;2.88;;;;;;;;;;5014317;28;20399;-72
2023/03/12 02:45:35;;;;;;;4.55;2.05;;;;;;;;;;5013991;28;20026;-72
2023/03/12 02:48:02;;;;;;;4.03;2.30;;;;;;;;;;5013982;28;20438;-74
2023/03/12 02:50:28;;;;;;;12.05;3.00;;;;;;;;;;5015295;28;20391;-73
2023/03/12 02:52:54;;;;;;;4.13;1.90;;;;;;;;;;5013103;28;20029;-74
2023/03/12 02:55:20;;;;;;;7.00;2.25;;;;;;;;;;5017348;28;20029;-74
2023/03/12 02:57:46;;;;;;;8.02;2.55;;;;;;;;;;5025811;28;20034;-74
2023/03/12 03:00:13;;;;;;;6.50;2.83;;;;;;;;;;5021594;28;20034;-73
2023/03/12 03:02:39;;;;;;;6.80;3.03;;;;;;;;;;4997481;28;20105;-73
2023/03/12 03:05:06;;;;;;;9.43;1.95;;;;;;;;;;5013454;28;20180;-73
2023/03/12 03:07:32;;;;;;;4.18;2.20;;;;;;;;;;5022510;28;20144;-74
2023/03/12 03:10:03;;;;;;;5.68;2.33;;;;;;;;;;5029871;28;20112;-73
2023/03/12 03:12:32;;;;;;;5.40;2.10;;;;;;;;;;5013748;28;20172;-74
2023/03/12 03:14:58;;;;;;;7.07;2.30;;;;;;;;;;5013224;28;20042;-73
2023/03/12 03:17:25;;;;;;;3.85;2.40;;;;;;;;;;5013016;28;20053;-74
2023/03/12 03:19:51;;;;;;;5.28;2.10;;;;;;;;;;5013352;28;20063;-72
2023/03/12 03:22:17;;;;;;;4.15;2.25;;;;;;;;;;5013539;28;20085;-74
2023/03/12 03:24:43;;;;;;;8.00;1.77;;;;;;;;;;5013465;28;20037;-74
2023/03/12 03:27:09;;;;;;;3.88;1.80;;;;;;;;;;5012824;28;20408;-74
2023/03/12 03:29:36;;;;;;;7.68;2.50;;;;;;;;;;5013213;28;20362;-75
2023/03/12 03:32:02;;;;;;;5.07;2.03;;;;;;;;;;5013519;28;20026;-75
2023/03/12 03:34:28;;;;;;;5.50;2.35;;;;;;;;;;5013151;28;20030;-74
2023/03/12 03:36:54;;;;;;;7.57;2.05;;;;;;;;;;5012875;28;20395;-74
2023/03/12 03:39:20;;;;;;;9.27;2.38;;;;;;;;;;5012720;28;20073;-74
2023/03/12 03:41:46;;;;;;;4.35;2.00;;;;;;;;;;5013253;28;20034;-75
2023/03/12 03:44:12;;;;;;;6.57;1.63;;;;;;;;;;5012948;28;20026;-76
2023/03/12 03:46:39;;;;;;;3.55;2.40;;;;;;;;;;5012799;28;20057;-74
2023/03/12 03:49:05;;;;;;;3.30;1.80;;;;;;;;;;5012526;28;20050;-74
2023/03/12 03:51:31;;;;;;;4.78;2.33;;;;;;;;;;5012706;28;20041;-74
2023/03/12 03:53:59;;;;;;;4.32;2.10;;;;;;;;;;5012348;28;20034;-74
2023/03/12 03:56:25;;;;;;;5.53;1.85;;;;;;;;;;5012843;28;20029;-75
2023/03/12 03:58:51;;;;;;;3.03;2.08;;;;;;;;;;5012784;28;20029;-75
2023/03/12 04:01:17;;;;;;;9.85;2.25;;;;;;;;;;5014261;28;20112;-73
2023/03/12 04:03:43;;;;;;;3.58;1.90;;;;;;;;;;5013520;28;20026;-76
2023/03/12 04:06:10;;;;;;;4.68;2.20;;;;;;;;;;5013288;28;20025;-76
2023/03/12 04:08:37;;;;;;;4.72;1.63;;;;;;;;;;5012954;28;20044;-75
2023/03/12 04:11:07;;;;;;;6.15;1.85;;;;;;;;;;5014277;28;20029;-75
2023/03/12 04:13:33;;;;;;;5.10;1.80;;;;;;;;;;5014007;28;20026;-75
2023/03/12 04:15:59;;;;;;;5.05;2.03;;;;;;;;;;5015001;28;20030;-73
2023/03/12 04:18:25;;;;;;;5.97;1.70;;;;;;;;;;5012850;28;20030;-73
2023/03/12 04:20:51;;;;;;;4.55;2.03;;;;;;;;;;5012183;28;20391;-73
2023/03/12 04:23:17;;;;;;;4.03;1.90;;;;;;;;;;5012444;28;20022;-74
2023/03/12 04:25:43;;;;;;;6.28;2.20;;;;;;;;;;4994654;28;20030;-74
2023/03/12 04:28:09;;;;;;;6.53;1.92;;;;;;;;;;5012019;28;20464;-74
2023/03/12 04:30:37;;;;;;;2.28;1.50;;;;;;;;;;5012282;28;20034;-75
2023/03/12 04:33:03;;;;;;;3.95;1.85;;;;;;;;;;5012726;28;20053;-75
2023/03/12 04:35:29;;;;;;;5.95;2.08;;;;;;;;;;5012045;28;20049;-75
2023/03/12 04:37:55;;;;;;;6.60;1.80;;;;;;;;;;5011992;28;20465;-75
2023/03/12 04:40:21;;;;;;;5.68;1.95;;;;;;;;;;5012199;28;20041;-75
2023/03/12 04:42:48;;;;;;;5.60;1.83;;;;;;;;;;5012118;28;20026;-75
2023/03/12 04:45:14;;;;;;;3.45;1.80;;;;;;;;;;4994563;28;20037;-74
2023/03/12 04:47:40;;;;;;;3.30;1.80;;;;;;;;;;5011179;28;20044;-75
2023/03/12 04:50:06;;;;;;;4.40;1.83;;;;;;;;;;5012816;28;20026;-75
2023/03/12 04:52:32;;;;;;;4.07;2.00;;;;;;;;;;5013593;28;20029;-75
2023/03/12 04:54:59;;;;;;;6.10;2.03;;;;;;;;;;5006808;28;20568;-75
2023/03/12 04:57:25;;;;;;;5.63;1.90;;;;;;;;;;5031730;28;20034;-75
2023/03/12 04:59:51;;;;;;;4.20;1.58;;;;;;;;;;5032456;28;20022;-75
2023/03/12 05:02:18;;;;;;;6.50;2.30;;;;;;;;;;5013364;28;20029;-75
2023/03/12 05:04:44;;;;;;;5.07;1.35;;;;;;;;;;5013336;28;20451;-75
2023/03/12 05:07:10;;;;;;;6.43;2.00;;;;;;;;;;5016176;28;20026;-74
2023/03/12 05:09:36;;;;;;;1.98;1.35;;;;;;;;;;5016100;28;20026;-74
2023/03/12 05:12:02;;;;;;;9.27;2.20;;;;;;;;;;5016190;28;20029;-74
2023/03/12 05:14:28;;;;;;;5.28;1.63;;;;;;;;;;5015910;28;20033;-74
2023/03/12 05:16:54;;;;;;;3.97;1.90;;;;;;;;;;5015445;28;20034;-74
2023/03/12 05:19:20;;;;;;;4.35;1.73;;;;;;;;;;5015685;28;20176;-74
2023/03/12 05:21:46;;;;;;;2.53;1.08;;;;;;;;;;5015437;28;20030;-74
2023/03/12 05:24:12;;;;;;;3.35;1.27;;;;;;;;;;5016419;28;20025;-74
2023/03/12 05:26:38;;;;;;;4.63;1.63;;;;;;;;;;5015506;28;20033;-75
2023/03/12 05:29:05;;;;;;;3.95;1.55;;;;;;;;;;5015657;28;20026;-74
2023/03/12 05:31:33;;;;;;;3.47;1.30;;;;;;;;;;5015363;28;20030;-73
2023/03/12 05:34:00;;;;;;;5.82;1.30;;;;;;;;;;5016284;28;20053;-73
2023/03/12 05:36:26;;;;;;;6.55;1.58;;;;;;;;;;4997861;28;20585;-71
2023/03/12 05:38:52;;;;;;;6.35;1.80;;;;;;;;;;5024736;28;20032;-73
2023/03/12 05:41:20;;;;;;;3.63;1.33;;;;;;;;;;5031092;28;20164;-74
2023/03/12 05:43:46;;;;;;;4.63;1.25;;;;;;;;;;5018720;28;20873;-73
2023/03/12 05:46:13;;;;;;;2.50;1.27;;;;;;;;;;5021849;28;20022;-73
2023/03/12 05:48:39;;;;;;;3.47;1.73;;;;;;;;;;5020595;28;20171;-74
2023/03/12 05:51:05;;;;;;;3.63;1.25;;;;;;;;;;5025635;28;20022;-73
2023/03/12 05:53:31;;;;;;;5.68;1.48;;;;;;;;;;5030984;28;20037;-74
2023/03/12 05:56:02;;;;;;;11.85;2.00;;;;;;;;;;5030022;28;20089;-74
2023/03/12 05:58:28;;;;;;;;;;;;;;;;;;4990323;28;20396;-74
2023/03/12 06:00:54;;;;;;;3.35;1.42;;;;;;;;;;4995324;28;19910;-74
2023/03/12 06:03:20;;;;;;;3.53;1.50;;;;;;;;;;4995345;28;20027;-74
2023/03/12 06:05:47;;;;;;;2.38;1.23;;;;;;;;;;4995093;28;20030;-74
2023/03/12 06:08:13;;;;;;;3.55;1.23;;;;;;;;;;5011114;28;20025;-72
2023/03/12 06:10:39;;;;;;;2.70;1.20;;;;;;;;;;5028049;28;20026;-73
2023/03/12 06:13:05;;;;;;;2.35;1.10;;;;;;;;;;5024523;28;20455;-75
2023/03/12 06:15:31;;;;;;;1.52;1.05;;;;;;;;;;5020038;28;20105;-74
2023/03/12 06:17:57;;;;;;;4.35;1.85;;;;;;;;;;5014538;28;20526;-74
2023/03/12 06:20:23;;;;;;;2.75;1.13;;;;;;;;;;5014580;28;20036;-75
2023/03/12 06:22:49;;;;;;;4.68;1.75;;;;;;;;;;5014968;28;20034;-75
2023/03/12 06:25:15;;;;;;;2.92;1.30;;;;;;;;;;5014551;28;20022;-74
2023/03/12 06:27:41;;;;;;;2.45;1.02;;;;;;;;;;5014252;28;20037;-75
2023/03/12 06:30:08;;;;;;;2.22;1.10;;;;;;;;;;5014227;28;20014;-74
2023/03/12 06:32:34;;;;;;;4.22;1.20;;;;;;;;;;5014428;28;20064;-76
2023/03/12 06:35:00;;;;;;;3.00;1.65;;;;;;;;;;4996614;28;20029;-75
2023/03/12 06:37:27;;;;;;;3.42;1.40;;;;;;;;;;5014237;28;20432;-75
2023/03/12 06:39:53;;;;;;;2.72;1.70;;;;;;;;;;5014183;28;20030;-75
2023/03/12 06:42:21;;;;;;;11.23;2.40;;;;;;;;;;5015102;28;20361;-76
2023/03/12 06:44:47;;;;;;;3.53;1.27;;;;;;;;;;5015767;28;20018;-75
2023/03/12 06:47:13;;;;;;;4.82;1.80;;;;;;;;;;5014133;28;20021;-75
2023/03/12 06:49:39;;;;;;;3.75;1.73;;;;;;;;;;5014248;28;20106;-74
2023/03/12 06:52:05;;;;;;;2.70;1.17;;;;;;;;;;4996388;28;20477;-74
2023/03/12 06:54:31;;;;;;;2.53;1.02;;;;;;;;;;5014317;28;20037;-74
2023/03/12 06:57:00;;;;;;;4.78;1.95;;;;;;;;;;5013927;28;20396;-75
2023/03/12 06:59:27;;;;;;;3.75;1.85;;;;;;;;;;5013645;28;20026;-76
2023/03/12 07:01:53;;;;;;;3.30;1.77;;;;;;;;;;5013943;28;20369;-74
2023/03/12 07:04:19;;;;;;;3.38;1.30;;;;;;;;;;5014089;28;20029;-75
2023/03/12 07:06:49;;;;;;;4.57;1.77;;;;;;;;;;4996148;28;20018;-74
2023/03/12 07:09:16;;;;;;;3.05;1.75;;;;;;;;;;5011954;28;20232;-76
2023/03/12 07:11:42;;;;;;;3.72;1.73;;;;;;;;;;5013070;28;20109;-77
2023/03/12 07:14:08;;;;;;;6.18;1.50;;;;;;;;;;5013170;28;20025;-75
2023/03/12 07:16:34;;;;;;;5.57;1.60;;;;;;;;;;5011437;28;20061;-75
2023/03/12 07:19:00;;;;;;;3.22;1.40;;;;;;;;;;5002361;28;20088;-74
2023/03/12 07:21:27;;;;;;;4.82;1.33;;;;;;;;;;5013865;28;20033;-75
2023/03/12 07:23:53;;;;;;;3.72;1.45;;;;;;;;;;5013448;28;20018;-76
2023/03/12 07:26:19;;;;;;;4.05;1.85;;;;;;;;;;5013082;28;20550;-74
2023/03/12 07:28:45;;;;;;;2.45;1.20;;;;;;;;;;5012195;28;20381;-76
2023/03/12 07:31:11;;;;;;;3.63;1.52;;;;;;;;;;5013320;28;20428;-75
2023/03/12 07:33:37;;;;;;;3.60;1.15;;;;;;;;;;4995684;28;20057;-75
2023/03/12 07:36:04;;;;;;;4.45;1.70;;;;;;;;;;5013147;28;20025;-75
2023/03/12 07:38:30;;;;;;;3.90;1.15;;;;;;;;;;5012743;28;20109;-75
2023/03/12 07:40:57;;;;;;;4.55;1.20;;;;;;;;;;5012797;28;20400;-75
2023/03/12 07:43:24;;;;;;;3.15;1.67;;;;;;;;;;5020724;28;20034;-75
2023/03/12 07:45:50;;;;;;;4.85;1.38;;;;;;;;;;5028353;28;20018;-74
2023/03/12 07:48:18;;;;;;;6.18;2.58;;;;;;;;;;5020427;28;20049;-75
2023/03/12 07:50:44;;;;;;;6.53;2.33;;;;;;;;;;5021335;28;20021;-75
2023/03/12 07:53:10;;;;;;;3.08;2.17;;;;;;;;;;5017356;28;20033;-75
2023/03/12 07:55:36;;;;;;;4.00;1.50;;;;;;;;;;5010984;28;20052;-75
2023/03/12 07:58:03;;;;;;;5.35;1.92;;;;;;;;;;5010574;28;20029;-76
2023/03/12 08:00:30;;;;;;;5.30;1.70;;;;;;;;;;5010819;28;20208;-75
2023/03/12 08:02:56;;;;;;;5.50;1.80;;;;;;;;;;5010684;28;20029;-75
2023/03/12 08:05:23;;;;;;;3.83;1.40;;;;;;;;;;5010694;28;20030;-75
2023/03/12 08:07:51;;;;;;;6.55;2.28;;;;;;;;;;5011400;28;20435;-73
2023/03/12 08:10:17;;;;;;;5.18;2.13;;;;;;;;;;5008584;28;20014;-75
2023/03/12 08:12:43;;;;;;;4.25;2.17;;;;;;;;;;5004568;28;20605;-75
2023/03/12 08:15:11;;;;;;;5.47;2.28;;;;;;;;;;5025337;28;20021;-75
2023/03/12 08:17:37;;;;;;;3.05;1.80;;;;;;;;;;5010257;28;20168;-75
2023/03/12 08:20:04;;;;;;;8.07;2.20;;;;;;;;;;5011655;28;20034;-74
2023/03/12 08:22:30;;;;;;;2.97;1.48;;;;;;;;;;5010830;28;20038;-75
2023/03/12 08:24:56;;;;;;;4.55;1.55;;;;;;;;;;5010759;28;20405;-76
2023/03/12 08:27:22;;;;;;;2.30;1.27;;;;;;;;;;5010296;28;20537;-74
2023/03/12 08:29:48;;;;;;;6.60;1.77;;;;;;;;;;5010447;28;20045;-74
2023/03/12 08:32:14;;;;;;;2.78;1.48;;;;;;;;;;5010499;28;20448;-73
2023/03/12 08:34:40;;;;;;;4.18;1.48;;;;;;;;;;5010623;28;20144;-74
2023/03/12 08:37:06;;;;;;;2.92;1.42;;;;;;;;;;5011378;28;20061;-74
2023/03/12 08:39:33;;;;;;;3.97;1.25;;;;;;;;;;5011621;28;20034;-75
2023/03/12 08:41:59;;;;;;;2.17;1.38;;;;;;;;;;5011782;28;20028;-74
2023/03/12 08:44:25;;;;;;;6.13;1.13;;;;;;;;;;5011679;28;20030;-74
2023/03/12 08:46:51;;;;;;;4.55;1.50;;;;;;;;;;5011729;28;20025;-74
2023/03/12 08:49:17;;;;;;;5.75;1.70;;;;;;;;;;5011183;28;20064;-75
2023/03/12 08:51:43;;;;;;;3.33;1.20;;;;;;;;;;5009646;28;20034;-75
2023/03/12 08:54:09;;;;;;;3.95;1.58;;;;;;;;;;5004630;28;20030;-76
2023/03/12 08:56:41;;;;;;;6.93;1.75;;;;;;;;;;5009596;28;20049;-77
2023/03/12 08:59:08;;;;;;;4.57;2.08;;;;;;;;;;4992253;28;20049;-75
2023/03/12 09:01:34;;;;;;;4.35;1.52;;;;;;;;;;4992923;28;20512;-75
2023/03/12 09:04:01;;;;;;;6.35;1.70;;;;;;;;;;5009738;28;20018;-74
2023/03/12 09:06:27;;;;;;;4.78;1.98;;;;;;;;;;4999158;28;20030;-75
2023/03/12 09:08:53;;;;;;;5.20;1.65;;;;;;;;;;4984968;28;20506;-75
2023/03/12 09:11:19;;;;;;;5.43;1.70;;;;;;;;;;5009638;28;20026;-75
2023/03/12 09:13:45;;;;;;;4.28;1.90;;;;;;;;;;5009296;28;20025;-75
2023/03/12 09:16:11;;;;;;;3.97;1.65;;;;;;;;;;4974655;28;20473;-74
2023/03/12 09:18:37;;;;;;;3.08;1.40;;;;;;;;;;4991730;28;20081;-75
2023/03/12 09:21:03;;;;;;;2.83;1.52;;;;;;;;;;4991787;28;20033;-73
2023/03/12 09:23:29;;;;;;;3.78;1.92;;;;;;;;;;5010762;28;20453;-71
2023/03/12 09:25:56;;;;;;;5.65;1.92;;;;;;;;;;5020975;28;20554;-74
2023/03/12 09:28:22;;;;;;;4.93;1.75;;;;;;;;;;5014898;28;20019;-74
2023/03/12 09:30:48;;;;;;;5.60;1.80;;;;;;;;;;4974302;28;20030;-73
2023/03/12 09:33:14;;;;;;;3.17;1.80;;;;;;;;;;5011328;28;20124;-75
2023/03/12 09:35:40;;;;;;;2.55;1.20;;;;;;;;;;5011028;28;20041;-74
2023/03/12 09:38:06;;;;;;;4.13;1.52;;;;;;;;;;4997381;28;20512;-78
2023/03/12 09:40:36;;;;;;;2.88;1.80;;;;;;;;;;4991571;28;20066;-76
2023/03/12 09:43:04;;;;;;;4.80;1.48;;;;;;;;;;5007888;28;20029;-76
2023/03/12 09:45:37;;;;;;;4.18;1.52;;;;;;;;;;5031152;28;20033;-74
2023/03/12 09:48:05;;;;;;;5.72;2.00;;;;;;;;;;5030430;28;20392;-74
2023/03/12 09:50:33;;;;;;;4.18;1.42;;;;;;;;;;5029690;28;20040;-74
2023/03/12 09:53:08;;;;;;;2.85;1.65;;;;;;;;;;5032872;28;20087;-75
2023/03/12 09:55:39;;;;;;;3.03;1.20;;;;;;;;;;5014657;28;20025;-75
2023/03/12 09:58:10;;;;;;;2.05;1.08;;;;;;;;;;5032598;28;20358;-74
2023/03/12 10:00:36;;;;;;;3.08;1.15;;;;;;;;;;5032500;28;20486;-75
2023/03/12 10:03:02;;;;;;;3.28;1.45;;;;;;;;;;5033328;28;20041;-74
2023/03/12 10:05:34;;;;;;;3.10;1.23;;;;;;;;;;5034506;28;20061;-73
2023/03/12 10:08:04;;;;;;;3.20;1.45;;;;;;;;;;5029179;28;20084;-74
2023/03/12 10:10:36;;;;;;;4.95;1.55;;;;;;;;;;5015330;28;20022;-74
2023/03/12 10:13:21;;;;;;;4.25;1.58;;;;;;;;;;5014861;28;20424;-74
2023/03/12 10:15:47;;;;;;;4.15;1.85;;;;;;;;;;5014881;28;20096;-74
2023/03/12 10:18:33;;;;;;;4.30;1.25;;;;;;;;;;5014584;28;20480;-74
2023/03/12 10:21:02;;;;;;;2.45;1.23;;;;;;;;;;5015021;28;20040;-74
2023/03/12 10:23:31;;;;;;;5.20;1.20;;;;;;;;;;5015008;28;20022;-71
2023/03/12 10:25:59;;;;;;;4.45;1.60;;;;;;;;;;5014675;28;20211;-74
2023/03/12 10:28:40;;;;;;;3.35;0.95;;;;;;;;;;5014287;28;20058;-73
2023/03/12 10:31:12;;;;;;;2.35;0.95;;;;;;;;;;5014538;28;20026;-74
2023/03/12 10:33:47;;;;;;;9.05;1.73;;;;;;;;;;5014634;28;20116;-73
2023/03/12 10:36:25;;;;;;;4.78;1.50;;;;;;;;;;5014434;28;20127;-74
2023/03/12 10:38:51;;;;;;;3.47;1.08;;;;;;;;;;4996390;28;20025;-74
2023/03/12 10:41:19;;;;;;;2.72;1.33;;;;;;;;;;5014296;28;20033;-74
2023/03/12 10:43:45;;;;;;;4.43;1.42;;;;;;;;;;5014371;28;20099;-75
2023/03/12 10:46:14;;;;;;;4.18;1.35;;;;;;;;;;5014193;28;20032;-74
2023/03/12 10:48:40;;;;;;;2.92;1.27;;;;;;;;;;5013652;28;20029;-75
2023/03/12 10:51:07;;;;;;;2.88;1.45;;;;;;;;;;4996680;28;20057;-74
2023/03/12 10:53:43;;;;;;;3.10;1.40;;;;;;;;;;5014131;28;20056;-74
2023/03/12 10:56:17;;;;;;;4.03;1.17;;;;;;;;;;5013895;28;20101;-74
2023/03/12 10:58:45;;;;;;;3.13;1.40;;;;;;;;;;5014127;28;20045;-74
2023/03/12 11:01:25;;;;;;;4.38;1.35;;;;;;;;;;5013981;28;20030;-74
2023/03/12 11:03:52;;;;;;;4.13;1.45;;;;;;;;;;5014274;28;20361;-74
2023/03/12 11:06:28;;;;;;;1.55;1.08;;;;;;;;;;4997247;28;20030;-74
2023/03/12 11:09:09;;;;;;;4.32;1.30;;;;;;;;;;5015729;28;20022;-74
2023/03/12 11:11:36;;;;;;;5.03;1.23;;;;;;;;;;5014981;28;20064;-75
2023/03/12 11:14:11;;;;;;;4.50;0.95;;;;;;;;;;5014885;28;20492;-75
2023/03/12 11:16:38;;;;;;;4.25;1.35;;;;;;;;;;5005533;28;20037;-75
2023/03/12 11:19:05;;;;;;;4.22;1.25;;;;;;;;;;5023211;28;20018;-74
2023/03/12 11:21:32;;;;;;;2.75;1.33;;;;;;;;;;5022994;28;20481;-74
2023/03/12 11:23:58;;;;;;;4.22;1.30;;;;;;;;;;5019075;28;20026;-74
2023/03/12 11:26:34;;;;;;;4.15;1.38;;;;;;;;;;5017685;28;20053;-73
2023/03/12 11:29:02;;;;;;;5.00;1.42;;;;;;;;;;5018144;28;20030;-74
2023/03/12 11:31:31;;;;;;;1.75;0.75;;;;;;;;;;5019060;28;20472;-74
2023/03/12 11:34:00;;;;;;;3.22;0.95;;;;;;;;;;5015288;28;20074;-73
2023/03/12 11:36:29;;;;;;;2.33;1.13;;;;;;;;;;5013542;28;20049;-74
2023/03/12 11:38:55;;;;;;;5.40;1.23;;;;;;;;;;4995125;28;20433;-72
2023/03/12 11:41:24;;;;;;;2.92;1.00;;;;;;;;;;5013060;28;20038;-73
2023/03/12 11:44:16;;;;;;;3.50;1.02;;;;;;;;;;5013303;28;20030;-73
2023/03/12 11:46:58;;;;;;;2.15;0.95;;;;;;;;;;5012854;28;20377;-73
2023/03/12 11:49:42;;;;;;;3.85;1.27;;;;;;;;;;5013017;28;20053;-72
2023/03/12 11:52:08;;;;;;;5.68;1.25;;;;;;;;;;4995016;28;20036;-73
2023/03/12 11:54:34;;;;;;;2.92;1.00;;;;;;;;;;5012747;28;20030;-74
2023/03/12 11:57:02;;;;;;;1.48;0.90;;;;;;;;;;5012801;28;20030;-72
2023/03/12 11:59:28;;;;;;;1.55;0.90;;;;;;;;;;4994818;28;20026;-74
2023/03/12 12:02:03;;;;;;;2.80;0.98;;;;;;;;;;5012520;28;20068;-74
2023/03/12 12:04:32;;;;;;;2.65;1.20;;;;;;;;;;5012424;28;20531;-74
2023/03/12 12:07:07;;;;;;;2.72;1.20;;;;;;;;;;4994719;28;20637;-70
2023/03/12 12:09:48;;;;;;;2.83;1.10;;;;;;;;;;5012352;28;20427;-73
2023/03/12 12:12:14;;;;;;;5.05;1.75;;;;;;;;;;4994940;28;20026;-74
2023/03/12 12:14:44;;;;;;;1.77;1.30;;;;;;;;;;5012332;28;20028;-73
2023/03/12 12:17:19;;;;;;;4.20;1.33;;;;;;;;;;4994558;28;20104;-74
2023/03/12 12:20:08;;;;;;;1.85;1.10;;;;;;;;;;5012233;28;20025;-73
2023/03/12 12:22:56;;;;;;;5.60;2.15;;;;;;;;;;5012310;28;20396;-74
2023/03/12 12:25:22;;;;;;;4.88;1.98;;;;;;;;;;4994419;28;20034;-74
2023/03/12 12:27:48;;;;;;;4.53;1.65;;;;;;;;;;5011852;28;20036;-74
2023/03/12 12:30:23;;;;;;;5.10;1.67;;;;;;;;;;4994645;28;20091;-74
2023/03/12 12:33:00;;;;;;;5.60;1.90;;;;;;;;;;5012064;28;20030;-74
2023/03/12 12:35:29;;;;;;;3.42;1.63;;;;;;;;;;5011903;28;20021;-71
2023/03/12 12:38:01;;;;;;;6.78;2.13;;;;;;;;;;5011827;28;20026;-74
2023/03/12 12:40:34;;;;;;;5.13;1.83;;;;;;;;;;5012202;28;20034;-74
2023/03/12 12:43:14;;;;;;;3.83;2.28;;;;;;;;;;5011974;28;20557;-75
2023/03/12 12:45:41;;;;;;;6.95;2.45;;;;;;;;;;5013291;28;20391;-74
2023/03/12 12:48:22;;;;;;;5.95;2.55;;;;;;;;;;5011734;28;20049;-74
2023/03/12 12:50:49;;;;;;;6.55;2.28;;;;;;;;;;5011673;28;20391;-73
2023/03/12 12:53:20;;;;;;;5.90;2.67;;;;;;;;;;5011766;28;20030;-73
2023/03/12 12:56:09;;;;;;;6.85;2.55;;;;;;;;;;5012156;28;20056;-73
2023/03/12 12:58:35;;;;;;;5.60;2.50;;;;;;;;;;4975184;28;20036;-71
2023/03/12 13:01:02;;;;;;;3.55;1.98;;;;;;;;;;5011605;28;20030;-74
2023/03/12 13:03:29;;;;;;;3.65;2.40;;;;;;;;;;5011418;28;20029;-73
2023/03/12 13:05:57;;;;;;;5.88;2.50;;;;;;;;;;5011752;28;20084;-73
2023/03/12 13:08:41;;;;;;;4.90;2.30;;;;;;;;;;4993459;28;20109;-74
2023/03/12 13:11:13;;;;;;;7.35;2.35;;;;;;;;;;5011464;28;20029;-72
2023/03/12 13:13:42;;;;;;;9.65;2.80;;;;;;;;;;5012263;28;20032;-74
2023/03/12 13:16:17;;;;;;;9.88;2.72;;;;;;;;;;5012743;28;20045;-74
2023/03/12 13:18:55;;;;;;;3.80;2.13;;;;;;;;;;5011855;28;20112;-75
2023/03/12 13:21:29;;;;;;;4.05;1.77;;;;;;;;;;5011727;28;20030;-75
2023/03/12 13:24:21;;;;;;;5.50;2.28;;;;;;;;;;5011804;28;20473;-74
2023/03/12 13:27:05;;;;;;;2.88;1.83;;;;;;;;;;5010819;28;20108;-73
2023/03/12 13:29:31;;;;;;;5.38;2.40;;;;;;;;;;4998035;28;20030;-74
2023/03/12 13:31:57;;;;;;;7.70;2.25;;;;;;;;;;5015356;28;20033;-74
2023/03/12 13:34:23;;;;;;;6.25;2.00;;;;;;;;;;5015672;28;20106;-75
2023/03/12 13:36:51;;;;;;;5.35;2.28;;;;;;;;;;5015213;28;20058;-73
2023/03/12 13:39:17;;;;;;;4.45;2.10;;;;;;;;;;5015087;28;20490;-75
2023/03/12 13:41:51;;;;;;;5.07;1.88;;;;;;;;;;5015156;28;20030;-74
2023/03/12 13:44:24;;;;;;;5.55;1.80;;;;;;;;;;5014840;28;20484;-74
2023/03/12 13:47:17;;;;;;;4.50;1.88;;;;;;;;;;5015158;28;20026;-74
2023/03/12 13:49:45;;;;;;;4.82;1.55;;;;;;;;;;5015030;28;20018;-74
2023/03/12 13:52:27;;;;;;;5.95;2.38;;;;;;;;;;5019644;28;20537;-75
2023/03/12 13:55:07;;;;;;;4.55;1.55;;;;;;;;;;5034246;28;20026;-74
2023/03/12 13:57:47;;;;;;;4.05;2.15;;;;;;;;;;5011790;28;20014;-74
2023/03/12 14:00:16;;;;;;;3.78;1.80;;;;;;;;;;5010829;28;20026;-75
2023/03/12 14:02:50;;;;;;;15.80;9.38;;;;;;;;;;5011064;28;20487;-75
2023/03/12 14:05:18;;;;;;;6.35;2.03;;;;;;;;;;5013449;28;20029;-75
2023/03/12 14:07:54;;;;;;;3.90;2.13;;;;;;;;;;5013798;28;20087;-75
2023/03/12 14:10:23;;;;;;;4.80;1.98;;;;;;;;;;5014588;28;20102;-74
2023/03/12 14:12:55;;;;;;;3.70;1.33;;;;;;;;;;5014419;28;20026;-73
2023/03/12 14:15:30;;;;;;;4.70;1.60;;;;;;;;;;5015063;28;20040;-73
2023/03/12 14:18:01;;;;;;;3.72;1.77;;;;;;;;;;5014553;28;20640;-74
2023/03/12 14:20:28;;;;;;;7.57;1.63;;;;;;;;;;5014840;28;20025;-73
2023/03/12 14:22:57;;;;;;;5.65;1.50;;;;;;;;;;5014496;28;20112;-74
2023/03/12 14:25:30;;;;;;;3.75;1.35;;;;;;;;;;5013698;28;20022;-74
2023/03/12 14:27:56;;;;;;;7.85;1.92;;;;;;;;;;5013103;28;20096;-72
2023/03/12 14:30:24;;;;;;;4.15;1.55;;;;;;;;;;5013553;28;20101;-74
2023/03/12 14:32:53;;;;;;;6.40;2.60;;;;;;;;;;5013169;28;20034;-73
2023/03/12 14:35:24;;;;;;;4.05;2.05;;;;;;;;;;5013756;28;20030;-75
2023/03/12 14:38:11;;;;;;;4.95;2.22;;;;;;;;;;5016889;28;20361;-74
2023/03/12 14:40:45;;;;;;;5.38;1.60;;;;;;;;;;4994192;28;20041;-74
2023/03/12 14:43:28;;;;;;;4.15;1.77;;;;;;;;;;4994787;28;20073;-74
2023/03/12 14:45:55;;;;;;;4.95;2.30;;;;;;;;;;5000424;28;20040;-73
2023/03/12 14:48:22;;;;;;;3.47;1.50;;;;;;;;;;5013441;28;20030;-74
2023/03/12 14:50:48;;;;;;;4.88;2.10;;;;;;;;;;5012630;28;20037;-74